sensor_id;sensor_type;location;lat;lon;timestamp;temperature;humidity
318;DHT22;146;53.448;10.228;2024-03-25T00:01:19;6.50;1.00
318;DHT22;146;53.448;10.228;2024-03-25T00:04:06;6.50;1.00
318;DHT22;146;53.448;10.228;2024-03-25T00:06:53;6.50;1.00
318;DHT22;146;53.448;10.228;2024-03-25T00:09:40;6.50;1.00
318;DHT22;146;53.448;10.228;2024-03-25T00:12:27;6.50;1.00
318;DHT22;146;53.448;10.228;2024-03-25T00:15:17;6.60;1.00
318;DHT22;146;53.448;10.228;2024-03-25T00:18:05;6.50;1.00
318;DHT22;146;53.448;10.228;2024-03-25T00:20:52;6.50;1.00
318;DHT22;146;53.448;10.228;2024-03-25T00:23:40;6.50;1.00
318;DHT22;146;53.448;10.228;2024-03-25T00:26:28;6.50;1.00
318;DHT22;146;53.448;10.228;2024-03-25T00:29:15;6.50;1.00
318;DHT22;146;53.448;10.228;2024-03-25T00:32:01;6.60;1.00
318;DHT22;146;53.448;10.228;2024-03-25T00:34:51;6.50;1.00
318;DHT22;146;53.448;10.228;2024-03-25T00:37:38;6.60;1.00
318;DHT22;146;53.448;10.228;2024-03-25T00:40:27;6.60;1.00
318;DHT22;146;53.448;10.228;2024-03-25T00:43:14;6.60;1.00
318;DHT22;146;53.448;10.228;2024-03-25T00:46:01;6.60;1.00
318;DHT22;146;53.448;10.228;2024-03-25T00:48:48;6.60;1.00
318;DHT22;146;53.448;10.228;2024-03-25T00:51:34;6.60;1.00
318;DHT22;146;53.448;10.228;2024-03-25T00:54:22;6.60;1.00
318;DHT22;146;53.448;10.228;2024-03-25T00:57:10;6.50;1.00
318;DHT22;146;53.448;10.228;2024-03-25T00:59:58;6.40;1.00
318;DHT22;146;53.448;10.228;2024-03-25T01:02:44;6.40;1.00
318;DHT22;146;53.448;10.228;2024-03-25T01:05:32;6.40;1.00
318;DHT22;146;53.448;10.228;2024-03-25T01:08:18;6.50;1.00
318;DHT22;146;53.448;10.228;2024-03-25T01:11:05;6.50;1.00
318;DHT22;146;53.448;10.228;2024-03-25T01:13:53;6.50;1.00
318;DHT22;146;53.448;10.228;2024-03-25T01:16:40;6.50;1.00
318;DHT22;146;53.448;10.228;2024-03-25T01:19:27;6.50;1.00
318;DHT22;146;53.448;10.228;2024-03-25T01:22:15;6.40;1.00
318;DHT22;146;53.448;10.228;2024-03-25T01:25:01;6.40;1.00
318;DHT22;146;53.448;10.228;2024-03-25T01:27:48;6.50;1.00
318;DHT22;146;53.448;10.228;2024-03-25T01:30:36;6.40;1.00
318;DHT22;146;53.448;10.228;2024-03-25T01:33:24;6.40;1.00
318;DHT22;146;53.448;10.228;2024-03-25T01:36:11;6.40;1.00
318;DHT22;146;53.448;10.228;2024-03-25T01:39:03;6.30;1.00
318;DHT22;146;53.448;10.228;2024-03-25T01:41:53;6.30;1.00
318;DHT22;146;53.448;10.228;2024-03-25T01:44:40;6.30;1.00
318;DHT22;146;53.448;10.228;2024-03-25T01:47:30;6.30;1.00
318;DHT22;146;53.448;10.228;2024-03-25T01:50:18;6.20;1.00
318;DHT22;146;53.448;10.228;2024-03-25T01:53:06;6.10;1.00
318;DHT22;146;53.448;10.228;2024-03-25T01:55:59;6.10;1.00
318;DHT22;146;53.448;10.228;2024-03-25T01:58:47;6.10;1.00
318;DHT22;146;53.448;10.228;2024-03-25T02:01:33;6.00;1.00
318;DHT22;146;53.448;10.228;2024-03-25T02:04:22;6.00;1.00
318;DHT22;146;53.448;10.228;2024-03-25T02:07:11;5.90;1.00
318;DHT22;146;53.448;10.228;2024-03-25T02:09:59;5.80;1.00
318;DHT22;146;53.448;10.228;2024-03-25T02:12:46;5.90;1.00
318;DHT22;146;53.448;10.228;2024-03-25T02:15:34;5.80;1.00
318;DHT22;146;53.448;10.228;2024-03-25T02:18:21;5.80;1.00
318;DHT22;146;53.448;10.228;2024-03-25T02:21:10;5.80;1.00
318;DHT22;146;53.448;10.228;2024-03-25T02:23:59;5.90;1.00
318;DHT22;146;53.448;10.228;2024-03-25T02:26:48;5.90;1.00
318;DHT22;146;53.448;10.228;2024-03-25T02:29:35;5.90;1.00
318;DHT22;146;53.448;10.228;2024-03-25T02:32:22;5.90;1.00
318;DHT22;146;53.448;10.228;2024-03-25T02:35:12;6.00;1.00
318;DHT22;146;53.448;10.228;2024-03-25T02:38:00;6.00;1.00
318;DHT22;146;53.448;10.228;2024-03-25T02:40:47;6.00;1.00
318;DHT22;146;53.448;10.228;2024-03-25T02:43:35;6.00;1.00
318;DHT22;146;53.448;10.228;2024-03-25T02:46:23;6.10;1.00
318;DHT22;146;53.448;10.228;2024-03-25T02:49:09;6.10;1.00
318;DHT22;146;53.448;10.228;2024-03-25T02:51:57;6.10;1.00
318;DHT22;146;53.448;10.228;2024-03-25T02:54:43;6.10;1.00
318;DHT22;146;53.448;10.228;2024-03-25T02:57:30;6.00;1.00
318;DHT22;146;53.448;10.228;2024-03-25T03:00:19;5.90;1.00
318;DHT22;146;53.448;10.228;2024-03-25T03:03:06;5.90;1.00
318;DHT22;146;53.448;10.228;2024-03-25T03:05:53;5.80;1.00
318;DHT22;146;53.448;10.228;2024-03-25T03:08:40;5.80;1.00
318;DHT22;146;53.448;10.228;2024-03-25T03:11:29;5.80;1.00
318;DHT22;146;53.448;10.228;2024-03-25T03:14:17;5.80;1.00
318;DHT22;146;53.448;10.228;2024-03-25T03:17:04;5.70;1.00
318;DHT22;146;53.448;10.228;2024-03-25T03:19:52;5.70;1.00
318;DHT22;146;53.448;10.228;2024-03-25T03:22:40;5.70;1.00
318;DHT22;146;53.448;10.228;2024-03-25T03:25:28;5.80;1.00
318;DHT22;146;53.448;10.228;2024-03-25T03:28:17;5.80;1.00
318;DHT22;146;53.448;10.228;2024-03-25T03:31:04;5.80;1.00
318;DHT22;146;53.448;10.228;2024-03-25T03:33:52;5.80;1.00
318;DHT22;146;53.448;10.228;2024-03-25T03:36:41;5.80;1.00
318;DHT22;146;53.448;10.228;2024-03-25T03:39:27;5.90;1.00
318;DHT22;146;53.448;10.228;2024-03-25T03:42:14;6.00;1.00
318;DHT22;146;53.448;10.228;2024-03-25T03:45:00;5.90;1.00
318;DHT22;146;53.448;10.228;2024-03-25T03:47:47;6.10;1.00
318;DHT22;146;53.448;10.228;2024-03-25T03:50:36;6.00;1.00
318;DHT22;146;53.448;10.228;2024-03-25T03:53:23;6.20;1.00
318;DHT22;146;53.448;10.228;2024-03-25T03:56:09;6.20;1.00
318;DHT22;146;53.448;10.228;2024-03-25T03:58:57;6.20;1.00
318;DHT22;146;53.448;10.228;2024-03-25T04:01:43;6.20;1.00
318;DHT22;146;53.448;10.228;2024-03-25T04:04:30;6.20;1.00
318;DHT22;146;53.448;10.228;2024-03-25T04:07:17;6.20;1.00
318;DHT22;146;53.448;10.228;2024-03-25T04:10:06;6.20;1.00
318;DHT22;146;53.448;10.228;2024-03-25T04:12:53;6.10;1.00
318;DHT22;146;53.448;10.228;2024-03-25T04:15:40;6.10;1.00
318;DHT22;146;53.448;10.228;2024-03-25T04:18:28;6.00;1.00
318;DHT22;146;53.448;10.228;2024-03-25T04:21:14;6.00;1.00
318;DHT22;146;53.448;10.228;2024-03-25T04:24:04;6.00;1.00
318;DHT22;146;53.448;10.228;2024-03-25T04:26:51;5.90;1.00
318;DHT22;146;53.448;10.228;2024-03-25T04:29:38;6.00;1.00
318;DHT22;146;53.448;10.228;2024-03-25T04:32:25;5.90;1.00
318;DHT22;146;53.448;10.228;2024-03-25T04:35:11;6.00;1.00
318;DHT22;146;53.448;10.228;2024-03-25T04:37:58;6.00;1.00
318;DHT22;146;53.448;10.228;2024-03-25T04:40:46;6.10;1.00
318;DHT22;146;53.448;10.228;2024-03-25T04:43:32;6.10;1.00
318;DHT22;146;53.448;10.228;2024-03-25T04:46:18;6.10;1.00
318;DHT22;146;53.448;10.228;2024-03-25T04:49:04;6.10;1.00
318;DHT22;146;53.448;10.228;2024-03-25T04:51:51;6.10;1.00
318;DHT22;146;53.448;10.228;2024-03-25T04:54:37;6.10;1.00
318;DHT22;146;53.448;10.228;2024-03-25T04:57:25;6.10;1.00
318;DHT22;146;53.448;10.228;2024-03-25T05:00:12;6.10;1.00
318;DHT22;146;53.448;10.228;2024-03-25T05:02:58;6.10;1.00
318;DHT22;146;53.448;10.228;2024-03-25T05:05:45;6.00;1.00
318;DHT22;146;53.448;10.228;2024-03-25T05:08:31;6.00;1.00
318;DHT22;146;53.448;10.228;2024-03-25T05:11:17;6.10;1.00
318;DHT22;146;53.448;10.228;2024-03-25T05:14:09;6.10;1.00
318;DHT22;146;53.448;10.228;2024-03-25T05:16:55;6.10;1.00
318;DHT22;146;53.448;10.228;2024-03-25T05:19:42;6.20;1.00
318;DHT22;146;53.448;10.228;2024-03-25T05:22:31;6.20;1.00
318;DHT22;146;53.448;10.228;2024-03-25T05:25:17;6.20;1.00
318;DHT22;146;53.448;10.228;2024-03-25T05:28:04;6.20;1.00
318;DHT22;146;53.448;10.228;2024-03-25T05:30:51;6.10;1.00
318;DHT22;146;53.448;10.228;2024-03-25T05:33:38;6.00;1.00
318;DHT22;146;53.448;10.228;2024-03-25T05:36:24;6.00;1.00
318;DHT22;146;53.448;10.228;2024-03-25T05:39:10;6.00;1.00
318;DHT22;146;53.448;10.228;2024-03-25T05:41:56;6.00;1.00
318;DHT22;146;53.448;10.228;2024-03-25T05:44:45;5.90;1.00
318;DHT22;146;53.448;10.228;2024-03-25T05:47:32;5.90;1.00
318;DHT22;146;53.448;10.228;2024-03-25T05:50:19;5.80;1.00
318;DHT22;146;53.448;10.228;2024-03-25T05:53:05;5.80;1.00
318;DHT22;146;53.448;10.228;2024-03-25T05:55:51;5.70;1.00
318;DHT22;146;53.448;10.228;2024-03-25T05:58:37;5.70;1.00
318;DHT22;146;53.448;10.228;2024-03-25T06:01:24;5.70;1.00
318;DHT22;146;53.448;10.228;2024-03-25T06:04:11;5.70;1.00
318;DHT22;146;53.448;10.228;2024-03-25T06:06:58;5.70;1.00
318;DHT22;146;53.448;10.228;2024-03-25T06:09:44;5.70;1.00
318;DHT22;146;53.448;10.228;2024-03-25T06:12:30;5.70;1.00
318;DHT22;146;53.448;10.228;2024-03-25T06:15:16;5.90;1.00
318;DHT22;146;53.448;10.228;2024-03-25T06:18:06;5.90;1.00
318;DHT22;146;53.448;10.228;2024-03-25T06:20:53;6.10;1.00
318;DHT22;146;53.448;10.228;2024-03-25T06:23:40;6.20;1.00
318;DHT22;146;53.448;10.228;2024-03-25T06:26:26;6.30;1.00
318;DHT22;146;53.448;10.228;2024-03-25T06:29:12;6.30;1.00
318;DHT22;146;53.448;10.228;2024-03-25T06:31:58;6.30;1.00
318;DHT22;146;53.448;10.228;2024-03-25T06:35:03;6.40;1.00
318;DHT22;146;53.448;10.228;2024-03-25T06:37:51;6.40;1.00
318;DHT22;146;53.448;10.228;2024-03-25T06:40:38;6.50;1.00
318;DHT22;146;53.448;10.228;2024-03-25T06:43:24;6.50;1.00
318;DHT22;146;53.448;10.228;2024-03-25T06:46:10;6.70;1.00
318;DHT22;146;53.448;10.228;2024-03-25T06:48:56;6.70;1.00
318;DHT22;146;53.448;10.228;2024-03-25T06:51:43;6.70;1.00
318;DHT22;146;53.448;10.228;2024-03-25T06:54:31;6.70;1.00
318;DHT22;146;53.448;10.228;2024-03-25T06:57:19;6.60;1.00
318;DHT22;146;53.448;10.228;2024-03-25T07:00:06;6.60;1.00
318;DHT22;146;53.448;10.228;2024-03-25T07:02:53;6.50;1.00
318;DHT22;146;53.448;10.228;2024-03-25T07:05:39;6.50;1.00
318;DHT22;146;53.448;10.228;2024-03-25T07:08:26;6.50;1.00
318;DHT22;146;53.448;10.228;2024-03-25T07:11:13;6.50;1.00
318;DHT22;146;53.448;10.228;2024-03-25T07:14:00;6.60;1.00
318;DHT22;146;53.448;10.228;2024-03-25T07:17:02;6.60;1.00
318;DHT22;146;53.448;10.228;2024-03-25T07:19:48;6.60;1.00
318;DHT22;146;53.448;10.228;2024-03-25T07:22:35;6.60;1.00
318;DHT22;146;53.448;10.228;2024-03-25T07:25:21;6.50;1.00
318;DHT22;146;53.448;10.228;2024-03-25T07:28:09;6.50;1.00
318;DHT22;146;53.448;10.228;2024-03-25T07:30:58;6.40;1.00
318;DHT22;146;53.448;10.228;2024-03-25T07:33:44;6.50;1.00
318;DHT22;146;53.448;10.228;2024-03-25T07:36:31;6.50;1.00
318;DHT22;146;53.448;10.228;2024-03-25T07:39:17;6.60;1.00
318;DHT22;146;53.448;10.228;2024-03-25T07:42:03;6.50;1.00
318;DHT22;146;53.448;10.228;2024-03-25T07:44:51;6.50;1.00
318;DHT22;146;53.448;10.228;2024-03-25T07:47:37;6.60;1.00
318;DHT22;146;53.448;10.228;2024-03-25T07:50:24;6.70;1.00
318;DHT22;146;53.448;10.228;2024-03-25T07:53:10;6.80;1.00
318;DHT22;146;53.448;10.228;2024-03-25T07:55:56;6.80;1.00
318;DHT22;146;53.448;10.228;2024-03-25T07:58:45;6.90;1.00
318;DHT22;146;53.448;10.228;2024-03-25T08:01:33;6.90;1.00
318;DHT22;146;53.448;10.228;2024-03-25T08:04:28;6.90;1.00
318;DHT22;146;53.448;10.228;2024-03-25T08:07:14;7.00;1.00
318;DHT22;146;53.448;10.228;2024-03-25T08:10:01;6.90;1.00
318;DHT22;146;53.448;10.228;2024-03-25T08:12:50;6.80;1.00
318;DHT22;146;53.448;10.228;2024-03-25T08:15:36;6.90;1.00
318;DHT22;146;53.448;10.228;2024-03-25T08:18:24;6.80;1.00
318;DHT22;146;53.448;10.228;2024-03-25T08:21:10;6.90;1.00
318;DHT22;146;53.448;10.228;2024-03-25T08:23:56;6.90;1.00
318;DHT22;146;53.448;10.228;2024-03-25T08:26:43;6.90;1.00
318;DHT22;146;53.448;10.228;2024-03-25T08:29:32;6.90;1.00
318;DHT22;146;53.448;10.228;2024-03-25T08:32:20;6.90;1.00
318;DHT22;146;53.448;10.228;2024-03-25T08:35:08;6.90;1.00
318;DHT22;146;53.448;10.228;2024-03-25T08:37:54;6.90;1.00
318;DHT22;146;53.448;10.228;2024-03-25T08:40:42;6.90;1.00
318;DHT22;146;53.448;10.228;2024-03-25T08:43:31;7.00;1.00
318;DHT22;146;53.448;10.228;2024-03-25T08:46:18;7.00;1.00
318;DHT22;146;53.448;10.228;2024-03-25T08:49:04;6.90;1.00
318;DHT22;146;53.448;10.228;2024-03-25T08:51:52;7.00;1.00
318;DHT22;146;53.448;10.228;2024-03-25T08:54:38;7.10;1.00
318;DHT22;146;53.448;10.228;2024-03-25T08:57:24;7.10;1.00
318;DHT22;146;53.448;10.228;2024-03-25T09:00:12;7.10;1.00
318;DHT22;146;53.448;10.228;2024-03-25T09:02:58;7.20;1.00
318;DHT22;146;53.448;10.228;2024-03-25T09:05:44;7.30;1.00
318;DHT22;146;53.448;10.228;2024-03-25T09:08:32;7.20;1.00
318;DHT22;146;53.448;10.228;2024-03-25T09:11:18;7.20;1.00
318;DHT22;146;53.448;10.228;2024-03-25T09:14:05;7.20;1.00
318;DHT22;146;53.448;10.228;2024-03-25T09:16:51;7.30;1.00
318;DHT22;146;53.448;10.228;2024-03-25T09:19:37;7.60;1.00
318;DHT22;146;53.448;10.228;2024-03-25T09:22:24;7.80;1.00
318;DHT22;146;53.448;10.228;2024-03-25T09:25:19;8.00;1.00
318;DHT22;146;53.448;10.228;2024-03-25T09:28:05;8.10;1.00
318;DHT22;146;53.448;10.228;2024-03-25T09:30:52;8.40;1.00
318;DHT22;146;53.448;10.228;2024-03-25T09:33:38;8.50;1.00
318;DHT22;146;53.448;10.228;2024-03-25T09:36:24;8.40;1.00
318;DHT22;146;53.448;10.228;2024-03-25T09:39:11;8.20;1.00
318;DHT22;146;53.448;10.228;2024-03-25T09:42:01;8.00;1.00
318;DHT22;146;53.448;10.228;2024-03-25T09:44:54;7.90;1.00
318;DHT22;146;53.448;10.228;2024-03-25T09:47:41;7.90;1.00
318;DHT22;146;53.448;10.228;2024-03-25T09:50:29;7.90;1.00
318;DHT22;146;53.448;10.228;2024-03-25T09:53:16;7.90;1.00
318;DHT22;146;53.448;10.228;2024-03-25T09:56:03;8.00;1.00
318;DHT22;146;53.448;10.228;2024-03-25T09:58:54;8.10;1.00
318;DHT22;146;53.448;10.228;2024-03-25T10:01:41;8.20;1.00
318;DHT22;146;53.448;10.228;2024-03-25T10:04:27;8.30;1.00
318;DHT22;146;53.448;10.228;2024-03-25T10:07:21;8.30;1.00
318;DHT22;146;53.448;10.228;2024-03-25T10:10:11;8.30;1.00
318;DHT22;146;53.448;10.228;2024-03-25T10:12:58;8.30;1.00
318;DHT22;146;53.448;10.228;2024-03-25T10:15:48;8.50;1.00
318;DHT22;146;53.448;10.228;2024-03-25T10:18:35;8.60;1.00
318;DHT22;146;53.448;10.228;2024-03-25T10:21:23;8.70;1.00
318;DHT22;146;53.448;10.228;2024-03-25T10:24:09;8.60;1.00
318;DHT22;146;53.448;10.228;2024-03-25T10:26:57;8.50;1.00
318;DHT22;146;53.448;10.228;2024-03-25T10:29:43;8.50;1.00
318;DHT22;146;53.448;10.228;2024-03-25T10:32:31;8.70;1.00
318;DHT22;146;53.448;10.228;2024-03-25T10:35:19;8.70;1.00
318;DHT22;146;53.448;10.228;2024-03-25T10:38:09;8.90;1.00
318;DHT22;146;53.448;10.228;2024-03-25T10:40:59;9.00;1.00
318;DHT22;146;53.448;10.228;2024-03-25T10:43:47;8.90;1.00
318;DHT22;146;53.448;10.228;2024-03-25T10:46:35;8.80;1.00
318;DHT22;146;53.448;10.228;2024-03-25T10:49:32;8.80;1.00
318;DHT22;146;53.448;10.228;2024-03-25T10:52:19;8.80;1.00
318;DHT22;146;53.448;10.228;2024-03-25T10:55:07;8.80;1.00
318;DHT22;146;53.448;10.228;2024-03-25T10:57:54;8.90;1.00
318;DHT22;146;53.448;10.228;2024-03-25T11:00:42;9.10;1.00
318;DHT22;146;53.448;10.228;2024-03-25T11:03:29;9.10;1.00
318;DHT22;146;53.448;10.228;2024-03-25T11:06:18;9.40;1.00
318;DHT22;146;53.448;10.228;2024-03-25T11:09:04;9.50;1.00
318;DHT22;146;53.448;10.228;2024-03-25T11:11:50;9.50;1.00
318;DHT22;146;53.448;10.228;2024-03-25T11:14:40;9.60;1.00
318;DHT22;146;53.448;10.228;2024-03-25T11:17:32;9.50;1.00
318;DHT22;146;53.448;10.228;2024-03-25T11:20:19;9.60;1.00
318;DHT22;146;53.448;10.228;2024-03-25T11:23:13;9.50;1.00
318;DHT22;146;53.448;10.228;2024-03-25T11:25:59;9.40;1.00
318;DHT22;146;53.448;10.228;2024-03-25T11:28:45;9.30;1.00
318;DHT22;146;53.448;10.228;2024-03-25T11:31:33;9.20;1.00
318;DHT22;146;53.448;10.228;2024-03-25T11:34:19;9.00;1.00
318;DHT22;146;53.448;10.228;2024-03-25T11:37:10;9.00;1.00
318;DHT22;146;53.448;10.228;2024-03-25T11:40:02;9.30;1.00
318;DHT22;146;53.448;10.228;2024-03-25T11:42:51;9.30;1.00
318;DHT22;146;53.448;10.228;2024-03-25T11:45:38;9.30;1.00
318;DHT22;146;53.448;10.228;2024-03-25T11:48:29;9.30;1.00
318;DHT22;146;53.448;10.228;2024-03-25T11:51:17;9.30;1.00
318;DHT22;146;53.448;10.228;2024-03-25T11:54:03;9.40;1.00
318;DHT22;146;53.448;10.228;2024-03-25T11:56:52;9.60;1.00
318;DHT22;146;53.448;10.228;2024-03-25T11:59:39;9.60;1.00
318;DHT22;146;53.448;10.228;2024-03-25T12:02:26;9.60;1.00
318;DHT22;146;53.448;10.228;2024-03-25T12:05:12;9.60;1.00
318;DHT22;146;53.448;10.228;2024-03-25T12:07:59;9.70;1.00
318;DHT22;146;53.448;10.228;2024-03-25T12:11:02;9.90;1.00
318;DHT22;146;53.448;10.228;2024-03-25T12:14:22;10.10;1.00
318;DHT22;146;53.448;10.228;2024-03-25T12:17:09;10.30;1.00
318;DHT22;146;53.448;10.228;2024-03-25T12:20:01;10.50;1.00
318;DHT22;146;53.448;10.228;2024-03-25T12:22:49;10.80;1.00
318;DHT22;146;53.448;10.228;2024-03-25T12:25:38;10.70;1.00
318;DHT22;146;53.448;10.228;2024-03-25T12:28:25;10.70;1.00
318;DHT22;146;53.448;10.228;2024-03-25T12:31:14;10.80;1.00
318;DHT22;146;53.448;10.228;2024-03-25T12:34:00;10.60;1.00
318;DHT22;146;53.448;10.228;2024-03-25T12:36:48;10.60;1.00
318;DHT22;146;53.448;10.228;2024-03-25T12:39:34;10.60;1.00
318;DHT22;146;53.448;10.228;2024-03-25T12:42:20;10.70;1.00
318;DHT22;146;53.448;10.228;2024-03-25T12:45:07;10.70;1.00
318;DHT22;146;53.448;10.228;2024-03-25T12:47:55;10.50;1.00
318;DHT22;146;53.448;10.228;2024-03-25T12:50:41;10.40;1.00
318;DHT22;146;53.448;10.228;2024-03-25T12:53:27;10.20;1.00
318;DHT22;146;53.448;10.228;2024-03-25T12:56:13;10.10;1.00
318;DHT22;146;53.448;10.228;2024-03-25T12:59:00;10.00;1.00
318;DHT22;146;53.448;10.228;2024-03-25T13:01:46;9.90;1.00
318;DHT22;146;53.448;10.228;2024-03-25T13:04:34;9.80;1.00
318;DHT22;146;53.448;10.228;2024-03-25T13:07:20;9.70;1.00
318;DHT22;146;53.448;10.228;2024-03-25T13:10:07;9.90;1.00
318;DHT22;146;53.448;10.228;2024-03-25T13:12:55;9.90;1.00
318;DHT22;146;53.448;10.228;2024-03-25T13:15:42;9.90;1.00
318;DHT22;146;53.448;10.228;2024-03-25T13:18:29;9.80;1.00
318;DHT22;146;53.448;10.228;2024-03-25T13:21:24;9.60;1.00
318;DHT22;146;53.448;10.228;2024-03-25T13:24:11;9.40;1.00
318;DHT22;146;53.448;10.228;2024-03-25T13:26:57;9.20;1.00
318;DHT22;146;53.448;10.228;2024-03-25T13:29:43;9.10;1.00
318;DHT22;146;53.448;10.228;2024-03-25T13:32:29;9.20;1.00
318;DHT22;146;53.448;10.228;2024-03-25T13:35:16;9.30;1.00
318;DHT22;146;53.448;10.228;2024-03-25T13:38:05;9.40;1.00
318;DHT22;146;53.448;10.228;2024-03-25T13:40:51;9.40;1.00
318;DHT22;146;53.448;10.228;2024-03-25T13:43:42;9.70;1.00
318;DHT22;146;53.448;10.228;2024-03-25T13:46:31;9.70;1.00
318;DHT22;146;53.448;10.228;2024-03-25T13:49:17;9.80;1.00
318;DHT22;146;53.448;10.228;2024-03-25T13:52:04;9.80;1.00
318;DHT22;146;53.448;10.228;2024-03-25T13:54:52;9.90;1.00
318;DHT22;146;53.448;10.228;2024-03-25T13:57:38;9.80;1.00
318;DHT22;146;53.448;10.228;2024-03-25T14:00:24;9.90;1.00
318;DHT22;146;53.448;10.228;2024-03-25T14:03:11;9.90;1.00
318;DHT22;146;53.448;10.228;2024-03-25T14:05:57;9.80;1.00
318;DHT22;146;53.448;10.228;2024-03-25T14:08:43;9.80;1.00
318;DHT22;146;53.448;10.228;2024-03-25T14:11:31;9.70;1.00
318;DHT22;146;53.448;10.228;2024-03-25T14:14:17;9.70;1.00
318;DHT22;146;53.448;10.228;2024-03-25T14:17:04;9.70;1.00
318;DHT22;146;53.448;10.228;2024-03-25T14:19:54;9.70;1.00
318;DHT22;146;53.448;10.228;2024-03-25T14:22:41;9.70;1.00
318;DHT22;146;53.448;10.228;2024-03-25T14:25:27;9.60;1.00
318;DHT22;146;53.448;10.228;2024-03-25T14:28:15;9.40;1.00
318;DHT22;146;53.448;10.228;2024-03-25T14:31:02;9.40;1.00
318;DHT22;146;53.448;10.228;2024-03-25T14:33:48;9.20;1.00
318;DHT22;146;53.448;10.228;2024-03-25T14:40:17;8.80;1.00
318;DHT22;146;53.448;10.228;2024-03-25T14:43:03;8.70;1.00
318;DHT22;146;53.448;10.228;2024-03-25T14:45:51;8.80;1.00
318;DHT22;146;53.448;10.228;2024-03-25T14:48:37;9.00;1.00
318;DHT22;146;53.448;10.228;2024-03-25T14:51:24;9.10;1.00
318;DHT22;146;53.448;10.228;2024-03-25T14:54:10;9.30;1.00
318;DHT22;146;53.448;10.228;2024-03-25T14:56:56;9.40;1.00
318;DHT22;146;53.448;10.228;2024-03-25T14:59:42;9.40;1.00
318;DHT22;146;53.448;10.228;2024-03-25T15:02:30;9.40;1.00
318;DHT22;146;53.448;10.228;2024-03-25T15:05:17;9.40;1.00
318;DHT22;146;53.448;10.228;2024-03-25T15:08:04;9.40;1.00
318;DHT22;146;53.448;10.228;2024-03-25T15:10:50;9.60;1.00
318;DHT22;146;53.448;10.228;2024-03-25T15:13:37;9.70;1.00
318;DHT22;146;53.448;10.228;2024-03-25T15:16:23;9.90;1.00
318;DHT22;146;53.448;10.228;2024-03-25T15:19:11;9.90;1.00
318;DHT22;146;53.448;10.228;2024-03-25T15:21:57;9.90;1.00
318;DHT22;146;53.448;10.228;2024-03-25T15:24:43;9.90;1.00
318;DHT22;146;53.448;10.228;2024-03-25T15:27:29;10.00;1.00
318;DHT22;146;53.448;10.228;2024-03-25T15:30:16;10.00;1.00
318;DHT22;146;53.448;10.228;2024-03-25T15:33:02;10.00;1.00
318;DHT22;146;53.448;10.228;2024-03-25T15:35:50;10.00;1.00
318;DHT22;146;53.448;10.228;2024-03-25T15:38:37;10.00;1.00
318;DHT22;146;53.448;10.228;2024-03-25T15:41:23;10.00;1.00
318;DHT22;146;53.448;10.228;2024-03-25T15:47:30;10.10;1.00
318;DHT22;146;53.448;10.228;2024-03-25T15:50:37;10.00;1.00
318;DHT22;146;53.448;10.228;2024-03-25T15:53:28;10.10;1.00
318;DHT22;146;53.448;10.228;2024-03-25T15:56:14;10.10;1.00
318;DHT22;146;53.448;10.228;2024-03-25T15:59:00;10.10;1.00
318;DHT22;146;53.448;10.228;2024-03-25T16:01:46;10.20;1.00
318;DHT22;146;53.448;10.228;2024-03-25T16:04:33;10.30;1.00
318;DHT22;146;53.448;10.228;2024-03-25T16:07:31;10.50;1.00
318;DHT22;146;53.448;10.228;2024-03-25T16:10:28;10.60;1.00
318;DHT22;146;53.448;10.228;2024-03-25T16:13:15;10.50;1.00
318;DHT22;146;53.448;10.228;2024-03-25T16:16:02;10.40;1.00
318;DHT22;146;53.448;10.228;2024-03-25T16:18:52;10.30;1.00
318;DHT22;146;53.448;10.228;2024-03-25T16:21:38;10.30;1.00
318;DHT22;146;53.448;10.228;2024-03-25T16:24:24;10.30;1.00
318;DHT22;146;53.448;10.228;2024-03-25T16:27:16;10.20;1.00
318;DHT22;146;53.448;10.228;2024-03-25T16:30:05;10.20;1.00
318;DHT22;146;53.448;10.228;2024-03-25T16:32:56;10.30;1.00
318;DHT22;146;53.448;10.228;2024-03-25T16:35:42;10.20;1.00
318;DHT22;146;53.448;10.228;2024-03-25T16:38:29;10.20;1.00
318;DHT22;146;53.448;10.228;2024-03-25T16:41:15;10.30;1.00
318;DHT22;146;53.448;10.228;2024-03-25T16:44:03;10.20;1.00
318;DHT22;146;53.448;10.228;2024-03-25T16:46:49;10.20;1.00
318;DHT22;146;53.448;10.228;2024-03-25T16:49:35;10.20;1.00
318;DHT22;146;53.448;10.228;2024-03-25T16:52:22;10.20;1.00
318;DHT22;146;53.448;10.228;2024-03-25T16:55:08;10.20;1.00
318;DHT22;146;53.448;10.228;2024-03-25T16:57:55;10.20;1.00
318;DHT22;146;53.448;10.228;2024-03-25T17:00:44;10.20;1.00
318;DHT22;146;53.448;10.228;2024-03-25T17:03:30;10.10;1.00
318;DHT22;146;53.448;10.228;2024-03-25T17:06:17;10.10;1.00
318;DHT22;146;53.448;10.228;2024-03-25T17:09:09;10.20;1.00
318;DHT22;146;53.448;10.228;2024-03-25T17:11:55;10.20;1.00
318;DHT22;146;53.448;10.228;2024-03-25T17:14:47;10.20;1.00
318;DHT22;146;53.448;10.228;2024-03-25T17:17:34;10.10;1.00
318;DHT22;146;53.448;10.228;2024-03-25T17:20:23;10.10;1.00
318;DHT22;146;53.448;10.228;2024-03-25T17:23:12;10.10;1.00
318;DHT22;146;53.448;10.228;2024-03-25T17:26:02;10.10;1.00
318;DHT22;146;53.448;10.228;2024-03-25T17:28:49;10.10;1.00
318;DHT22;146;53.448;10.228;2024-03-25T17:31:35;10.10;1.00
318;DHT22;146;53.448;10.228;2024-03-25T17:34:23;10.00;1.00
318;DHT22;146;53.448;10.228;2024-03-25T17:37:09;10.00;1.00
318;DHT22;146;53.448;10.228;2024-03-25T17:39:56;10.10;1.00
318;DHT22;146;53.448;10.228;2024-03-25T17:42:42;10.00;1.00
318;DHT22;146;53.448;10.228;2024-03-25T17:45:29;10.00;1.00
318;DHT22;146;53.448;10.228;2024-03-25T17:48:15;9.90;1.00
318;DHT22;146;53.448;10.228;2024-03-25T17:51:04;9.90;1.00
318;DHT22;146;53.448;10.228;2024-03-25T18:19:56;9.10;1.00
318;DHT22;146;53.448;10.228;2024-03-25T18:22:43;9.00;1.00
318;DHT22;146;53.448;10.228;2024-03-25T18:25:29;8.90;1.00
318;DHT22;146;53.448;10.228;2024-03-25T18:28:15;8.90;1.00
318;DHT22;146;53.448;10.228;2024-03-25T18:31:02;8.80;1.00
318;DHT22;146;53.448;10.228;2024-03-25T18:33:48;8.70;1.00
318;DHT22;146;53.448;10.228;2024-03-25T18:36:36;8.60;1.00
318;DHT22;146;53.448;10.228;2024-03-25T18:39:22;8.50;1.00
318;DHT22;146;53.448;10.228;2024-03-25T18:42:09;8.40;1.00
318;DHT22;146;53.448;10.228;2024-03-25T18:44:55;8.30;1.00
318;DHT22;146;53.448;10.228;2024-03-25T18:47:41;8.20;1.00
318;DHT22;146;53.448;10.228;2024-03-25T18:50:28;8.10;1.00
318;DHT22;146;53.448;10.228;2024-03-25T18:53:15;8.10;1.00
318;DHT22;146;53.448;10.228;2024-03-25T18:56:02;8.10;1.00
318;DHT22;146;53.448;10.228;2024-03-25T18:58:48;8.00;1.00
318;DHT22;146;53.448;10.228;2024-03-25T19:01:34;7.90;1.00
318;DHT22;146;53.448;10.228;2024-03-25T19:04:21;7.80;1.00
318;DHT22;146;53.448;10.228;2024-03-25T19:07:07;7.80;1.00
318;DHT22;146;53.448;10.228;2024-03-25T19:10:15;7.80;1.00
318;DHT22;146;53.448;10.228;2024-03-25T19:13:10;7.70;1.00
318;DHT22;146;53.448;10.228;2024-03-25T19:15:59;7.60;1.00
318;DHT22;146;53.448;10.228;2024-03-25T19:18:48;7.50;1.00
318;DHT22;146;53.448;10.228;2024-03-25T19:21:44;7.40;1.00
318;DHT22;146;53.448;10.228;2024-03-25T19:24:31;7.40;1.00
318;DHT22;146;53.448;10.228;2024-03-25T19:27:22;7.30;1.00
318;DHT22;146;53.448;10.228;2024-03-25T19:30:09;7.30;1.00
318;DHT22;146;53.448;10.228;2024-03-25T19:32:56;7.20;1.00
318;DHT22;146;53.448;10.228;2024-03-25T19:35:42;7.20;1.00
318;DHT22;146;53.448;10.228;2024-03-25T19:38:28;7.10;1.00
318;DHT22;146;53.448;10.228;2024-03-25T19:41:15;7.00;1.00